createdAt,value
2022-08-20T00:00:14.009Z,100.00
2022-08-20T00:02:42.041Z,100.00
2022-08-20T00:05:08.499Z,100.00
2022-08-20T00:07:34.856Z,100.00
2022-08-20T00:10:01.174Z,100.00
2022-08-20T00:12:27.606Z,100.00
2022-08-20T00:14:55.079Z,100.00
2022-08-20T00:17:21.403Z,100.00
2022-08-20T00:19:47.718Z,100.00
2022-08-20T00:22:14.052Z,100.00
2022-08-20T00:24:40.428Z,100.00
2022-08-20T00:27:06.834Z,100.00
2022-08-20T00:29:33.176Z,100.00
2022-08-20T00:31:59.557Z,100.00
2022-08-20T00:34:25.995Z,100.00
2022-08-20T00:36:52.317Z,100.00
2022-08-20T00:39:18.611Z,100.00
2022-08-20T00:41:45.867Z,100.00
2022-08-20T00:44:14.999Z,100.00
2022-08-20T00:46:42.653Z,100.00
2022-08-20T00:49:09.718Z,100.00
2022-08-20T00:51:41.358Z,100.00
2022-08-20T00:54:16.125Z,100.00
2022-08-20T00:56:45.274Z,100.00
2022-08-20T00:59:14.952Z,100.00
2022-08-20T01:01:55.935Z,100.00
2022-08-20T01:04:24.814Z,100.00
2022-08-20T01:06:51.137Z,100.00
2022-08-20T01:09:17.536Z,100.00
2022-08-20T01:12:04.261Z,100.00
2022-08-20T01:14:33.568Z,100.00
2022-08-20T01:17:02.303Z,100.00
2022-08-20T01:19:31.274Z,100.00
2022-08-20T01:21:59.144Z,100.00
2022-08-20T01:24:36.617Z,100.00
2022-08-20T01:27:04.361Z,100.00
2022-08-20T01:29:34.507Z,100.00
2022-08-20T01:32:02.267Z,100.00
2022-08-20T01:34:29.265Z,100.00
2022-08-20T01:36:57.586Z,100.00
2022-08-20T01:39:25.864Z,100.00
2022-08-20T01:42:31.144Z,100.00
2022-08-20T01:44:57.484Z,100.00
2022-08-20T01:47:29.125Z,100.00
2022-08-20T01:49:59.728Z,100.00
2022-08-20T01:52:38.197Z,100.00
2022-08-20T01:55:04.878Z,100.00
2022-08-20T01:57:31.440Z,100.00
2022-08-20T01:59:57.784Z,100.00
2022-08-20T02:02:25.646Z,100.00
2022-08-20T02:04:52.538Z,100.00
2022-08-20T02:07:21.467Z,100.00
2022-08-20T02:09:48.695Z,100.00
2022-08-20T02:12:15.394Z,100.00
2022-08-20T02:14:44.339Z,100.00
2022-08-20T02:17:11.734Z,100.00
2022-08-20T02:19:43.759Z,100.00
2022-08-20T02:22:33.195Z,100.00
2022-08-20T02:24:59.503Z,100.00
2022-08-20T02:27:25.827Z,100.00
2022-08-20T02:29:52.837Z,100.00
2022-08-20T02:32:32.092Z,100.00
2022-08-20T02:35:02.211Z,100.00
2022-08-20T02:37:28.568Z,100.00
2022-08-20T02:39:55.006Z,100.00
2022-08-20T02:42:21.364Z,100.00
2022-08-20T02:44:47.734Z,100.00
2022-08-20T02:47:14.061Z,100.00
2022-08-20T02:49:40.437Z,100.00
2022-08-20T02:52:06.936Z,100.00
2022-08-20T02:54:33.246Z,100.00
2022-08-20T02:56:59.684Z,100.00
2022-08-20T02:59:26.000Z,100.00
2022-08-20T03:02:00.576Z,100.00
2022-08-20T03:04:27.928Z,100.00
2022-08-20T03:06:54.295Z,100.00
2022-08-20T03:09:20.608Z,100.00
2022-08-20T03:11:46.925Z,100.00
2022-08-20T03:14:13.236Z,100.00
2022-08-20T03:16:39.570Z,100.00
2022-08-20T03:19:05.908Z,100.00
2022-08-20T03:21:32.412Z,100.00
2022-08-20T03:23:58.721Z,100.00
2022-08-20T03:26:25.059Z,100.00
2022-08-20T03:28:51.383Z,100.00
2022-08-20T03:31:17.891Z,100.00
2022-08-20T03:33:52.980Z,100.00
2022-08-20T03:36:22.140Z,100.00
2022-08-20T03:38:55.350Z,100.00
2022-08-20T03:41:21.767Z,100.00
2022-08-20T03:43:48.089Z,100.00
2022-08-20T03:46:22.879Z,100.00
2022-08-20T03:48:50.117Z,100.00
2022-08-20T03:51:26.323Z,100.00
2022-08-20T03:53:52.780Z,100.00
2022-08-20T03:56:19.096Z,100.00
2022-08-20T03:58:46.341Z,100.00
2022-08-20T04:01:12.699Z,100.00
2022-08-20T04:03:59.010Z,100.00
2022-08-20T04:06:26.195Z,100.00
2022-08-20T04:08:53.563Z,100.00
2022-08-20T04:11:19.874Z,100.00
2022-08-20T04:13:46.231Z,100.00
2022-08-20T04:16:14.953Z,100.00
2022-08-20T04:18:43.450Z,100.00
2022-08-20T04:21:24.945Z,100.00
2022-08-20T04:23:56.604Z,100.00
2022-08-20T04:26:23.111Z,100.00
2022-08-20T04:28:55.550Z,100.00
2022-08-20T04:31:25.347Z,100.00
2022-08-20T04:33:52.025Z,100.00
2022-08-20T04:36:18.389Z,100.00
2022-08-20T04:38:50.610Z,100.00
2022-08-20T04:41:23.421Z,100.00
2022-08-20T04:43:50.852Z,100.00
2022-08-20T04:46:17.208Z,100.00
2022-08-20T04:48:48.473Z,100.00
2022-08-20T04:51:17.325Z,100.00
2022-08-20T04:53:45.120Z,100.00
2022-08-20T04:56:19.780Z,100.00
2022-08-20T04:58:51.083Z,100.00
2022-08-20T05:01:17.470Z,100.00
2022-08-20T05:03:43.901Z,100.00
2022-08-20T05:06:11.080Z,100.00
2022-08-20T05:08:38.601Z,100.00
2022-08-20T05:11:29.994Z,100.00
2022-08-20T05:13:53.544Z,100.00
2022-08-20T05:16:20.163Z,100.00
2022-08-20T05:18:52.226Z,100.00
2022-08-20T05:21:19.060Z,100.00
2022-08-20T05:23:45.734Z,100.00
2022-08-20T05:26:12.091Z,100.00
2022-08-20T05:28:57.570Z,100.00
2022-08-20T05:31:31.400Z,100.00
2022-08-20T05:34:00.579Z,100.00
2022-08-20T05:36:26.951Z,100.00
2022-08-20T05:38:53.820Z,100.00
2022-08-20T05:41:28.686Z,100.00
2022-08-20T05:43:56.309Z,100.00
2022-08-20T05:46:23.003Z,100.00
2022-08-20T05:48:49.473Z,100.00
2022-08-20T05:51:15.890Z,100.00
2022-08-20T05:53:42.199Z,100.00
2022-08-20T05:56:11.200Z,100.00
2022-08-20T05:58:37.845Z,100.00
2022-08-20T06:01:04.486Z,100.00
2022-08-20T06:03:49.385Z,100.00
2022-08-20T06:06:18.372Z,100.00
2022-08-20T06:09:02.234Z,100.00
2022-08-20T06:11:28.553Z,100.00
2022-08-20T06:13:54.855Z,100.00
2022-08-20T06:16:21.164Z,100.00
2022-08-20T06:18:47.487Z,100.00
2022-08-20T06:21:13.850Z,100.00
2022-08-20T06:23:54.363Z,100.00
2022-08-20T06:26:29.905Z,100.00
2022-08-20T06:28:56.898Z,100.00
2022-08-20T06:31:23.290Z,100.00
2022-08-20T06:33:49.960Z,100.00
2022-08-20T06:36:19.001Z,100.00
2022-08-20T06:38:46.177Z,100.00
2022-08-20T06:41:12.588Z,100.00
2022-08-20T06:43:38.931Z,100.00
2022-08-20T06:46:05.451Z,100.00
2022-08-20T06:48:31.782Z,100.00
2022-08-20T06:50:58.143Z,100.00
2022-08-20T06:53:25.425Z,100.00
2022-08-20T06:55:54.077Z,100.00
2022-08-20T06:58:37.017Z,100.00
2022-08-20T07:01:09.855Z,100.00
2022-08-20T07:03:38.242Z,100.00
2022-08-20T07:06:05.393Z,100.00
2022-08-20T07:08:31.706Z,100.00
2022-08-20T07:10:59.428Z,100.00
2022-08-20T07:13:25.923Z,100.00
2022-08-20T07:15:54.220Z,100.00
2022-08-20T07:18:28.389Z,100.00
2022-08-20T07:20:56.955Z,100.00
2022-08-20T07:23:24.169Z,100.00
2022-08-20T07:25:50.933Z,100.00
2022-08-20T07:28:19.480Z,100.00
2022-08-20T07:31:12.338Z,100.00
2022-08-20T07:33:41.127Z,100.00
2022-08-20T07:36:07.915Z,100.00
2022-08-20T07:38:34.619Z,100.00
2022-08-20T07:41:02.340Z,100.00
2022-08-20T07:43:29.411Z,100.00
2022-08-20T07:45:57.556Z,100.00
2022-08-20T07:48:31.005Z,100.00
2022-08-20T07:50:59.093Z,100.00
2022-08-20T07:53:25.872Z,100.00
2022-08-20T07:55:58.965Z,100.00
2022-08-20T07:58:27.654Z,100.00
2022-08-20T08:01:00.053Z,100.00
2022-08-20T08:03:39.449Z,100.00
2022-08-20T08:06:14.373Z,100.00
2022-08-20T08:08:41.563Z,100.00
2022-08-20T08:11:08.200Z,100.00
2022-08-20T08:13:35.698Z,100.00
2022-08-20T08:16:04.696Z,100.00
2022-08-20T08:18:37.944Z,100.00
2022-08-20T08:21:05.469Z,100.00
2022-08-20T08:23:32.294Z,100.00
2022-08-20T08:25:59.279Z,100.00
2022-08-20T08:28:28.287Z,100.00
2022-08-20T08:30:54.732Z,100.00
2022-08-20T08:33:28.327Z,100.00
2022-08-20T08:36:05.929Z,100.00
2022-08-20T08:38:34.279Z,100.00
2022-08-20T08:41:08.348Z,100.00
2022-08-20T08:43:34.691Z,100.00
2022-08-20T08:46:02.477Z,100.00
2022-08-20T08:48:34.993Z,100.00
2022-08-20T08:51:02.673Z,100.00
2022-08-20T08:53:32.052Z,100.00
2022-08-20T08:55:59.515Z,100.00
2022-08-20T08:58:27.887Z,100.00
2022-08-20T09:00:56.487Z,100.00
2022-08-20T09:03:29.843Z,100.00
2022-08-20T09:05:59.689Z,100.00
2022-08-20T09:08:29.606Z,100.00
2022-08-20T09:11:01.090Z,100.00
2022-08-20T09:13:27.431Z,100.00
2022-08-20T09:15:53.760Z,100.00
2022-08-20T09:18:20.081Z,100.00
2022-08-20T09:20:46.384Z,100.00
2022-08-20T09:23:12.737Z,100.00
2022-08-20T09:25:39.370Z,100.00
2022-08-20T09:28:05.691Z,100.00
2022-08-20T09:30:32.071Z,100.00
2022-08-20T09:32:59.591Z,100.00
2022-08-20T09:35:26.226Z,100.00
2022-08-20T09:37:53.090Z,100.00
2022-08-20T09:40:21.019Z,100.00
2022-08-20T09:42:48.046Z,100.00
2022-08-20T09:45:15.637Z,100.00
2022-08-20T09:47:55.205Z,100.00
2022-08-20T09:50:24.221Z,100.00
2022-08-20T09:52:53.669Z,100.00
2022-08-20T09:55:24.459Z,100.00
2022-08-20T09:57:51.288Z,100.00
2022-08-20T10:00:21.188Z,100.00
2022-08-20T10:02:47.517Z,100.00
2022-08-20T10:05:14.171Z,100.00
2022-08-20T10:07:40.601Z,100.00
2022-08-20T10:10:08.668Z,100.00
2022-08-20T10:12:35.519Z,100.00
2022-08-20T10:15:01.841Z,100.00
2022-08-20T10:17:28.261Z,100.00
2022-08-20T10:19:54.585Z,100.00
2022-08-20T10:22:21.001Z,100.00
2022-08-20T10:24:47.372Z,100.00
2022-08-20T10:27:13.795Z,100.00
2022-08-20T10:29:43.024Z,100.00
2022-08-20T10:32:14.655Z,100.00
2022-08-20T10:34:41.552Z,100.00
2022-08-20T10:37:08.075Z,100.00
2022-08-20T10:39:35.802Z,100.00
2022-08-20T10:42:02.183Z,100.00
2022-08-20T10:44:28.537Z,100.00
2022-08-20T10:46:57.111Z,100.00
2022-08-20T10:49:23.664Z,100.00
2022-08-20T10:51:49.973Z,100.00
2022-08-20T10:54:16.401Z,100.00
2022-08-20T10:56:42.988Z,100.00
2022-08-20T10:59:09.340Z,100.00
2022-08-20T11:01:36.954Z,100.00
2022-08-20T11:04:03.687Z,100.00
2022-08-20T11:06:30.014Z,100.00
2022-08-20T11:08:56.796Z,100.00
2022-08-20T11:11:23.639Z,88.74
2022-08-20T11:13:50.017Z,71.94
2022-08-20T11:16:16.349Z,68.00
2022-08-20T11:18:47.307Z,66.74
2022-08-20T11:21:14.094Z,64.39
2022-08-20T11:23:40.409Z,64.87
2022-08-20T11:26:06.748Z,62.48
2022-08-20T11:28:33.268Z,59.08
2022-08-20T11:31:00.586Z,56.49
2022-08-20T11:33:27.018Z,48.63
2022-08-20T11:35:53.380Z,43.44
2022-08-20T11:38:19.738Z,42.40
2022-08-20T11:40:48.090Z,40.67
2022-08-20T11:43:16.256Z,42.38
2022-08-20T11:45:44.351Z,39.70
2022-08-20T11:48:10.687Z,39.34
2022-08-20T11:50:37.013Z,37.89
2022-08-20T11:53:03.339Z,39.47
2022-08-20T11:55:30.376Z,37.71
2022-08-20T11:58:00.021Z,38.79
2022-08-20T12:00:32.311Z,37.27
2022-08-20T12:03:00.464Z,36.34
2022-08-20T12:05:27.365Z,36.72
2022-08-20T12:07:53.723Z,38.64
2022-08-20T12:10:20.138Z,39.60
2022-08-20T12:12:46.457Z,38.82
2022-08-20T12:15:12.803Z,36.20
2022-08-20T12:17:39.785Z,37.15
2022-08-20T12:20:11.616Z,37.33
2022-08-20T12:22:37.971Z,36.56
2022-08-20T12:25:05.995Z,37.32
2022-08-20T12:27:32.687Z,37.31
2022-08-20T12:30:00.753Z,37.56
2022-08-20T12:32:28.761Z,37.73
2022-08-20T12:34:55.626Z,37.97
2022-08-20T12:37:24.335Z,38.51
2022-08-20T12:39:52.394Z,38.53
2022-08-20T12:42:19.256Z,38.29
2022-08-20T12:44:45.699Z,37.27
2022-08-20T12:47:13.552Z,39.29
2022-08-20T12:49:41.416Z,36.38
2022-08-20T12:52:08.029Z,36.70
2022-08-20T12:54:34.428Z,37.33
2022-08-20T12:57:01.093Z,41.10
2022-08-20T12:59:29.036Z,42.98
2022-08-20T13:01:58.297Z,47.91
2022-08-20T13:04:40.207Z,49.58
2022-08-20T13:07:06.614Z,51.30
2022-08-20T13:09:37.872Z,49.14
2022-08-20T13:12:07.225Z,48.33
2022-08-20T13:14:33.653Z,50.24
2022-08-20T13:17:01.048Z,49.98
2022-08-20T13:19:28.276Z,49.14
2022-08-20T13:21:55.053Z,49.36
2022-08-20T13:24:22.173Z,48.48
2022-08-20T13:26:49.101Z,47.19
2022-08-20T13:29:15.989Z,47.18
2022-08-20T13:31:42.475Z,45.86
2022-08-20T13:34:09.150Z,43.93
2022-08-20T13:36:35.901Z,42.04
2022-08-20T13:39:04.232Z,40.54
2022-08-20T13:41:30.564Z,40.16
2022-08-20T13:43:57.037Z,43.61
2022-08-20T13:46:23.517Z,45.24
2022-08-20T13:48:50.066Z,47.67
2022-08-20T13:51:19.249Z,51.11
2022-08-20T13:53:48.129Z,49.55
2022-08-20T13:56:14.557Z,47.14
2022-08-20T13:58:41.041Z,46.70
2022-08-20T14:01:07.513Z,47.20
2022-08-20T14:03:35.209Z,44.86
2022-08-20T14:06:02.874Z,41.16
2022-08-20T14:08:29.239Z,40.92
2022-08-20T14:10:55.841Z,43.22
2022-08-20T14:13:23.868Z,45.33
2022-08-20T14:15:50.230Z,50.50
2022-08-20T14:18:16.825Z,52.71
2022-08-20T14:20:45.429Z,53.19
2022-08-20T14:23:12.119Z,49.21
2022-08-20T14:25:38.450Z,49.46
2022-08-20T14:28:12.708Z,46.87
2022-08-20T14:30:39.919Z,47.57
2022-08-20T14:33:06.267Z,47.60
2022-08-20T14:35:32.584Z,45.27
2022-08-20T14:38:01.733Z,44.09
2022-08-20T14:40:31.783Z,43.64
2022-08-20T14:42:58.259Z,41.76
2022-08-20T14:45:25.316Z,41.77
2022-08-20T14:47:54.134Z,42.69
2022-08-20T14:50:26.033Z,40.74
2022-08-20T14:52:53.356Z,44.25
2022-08-20T14:55:21.080Z,49.29
2022-08-20T14:57:47.906Z,48.26
2022-08-20T15:00:18.475Z,47.57
2022-08-20T15:02:45.594Z,45.59
2022-08-20T15:05:12.262Z,43.77
2022-08-20T15:07:40.029Z,43.36
2022-08-20T15:10:08.471Z,44.56
2022-08-20T15:12:37.769Z,45.11
2022-08-20T15:15:15.923Z,46.00
2022-08-20T15:17:47.363Z,45.47
2022-08-20T15:20:19.688Z,43.83
2022-08-20T15:22:47.275Z,45.16
2022-08-20T15:25:14.993Z,46.47
2022-08-20T15:27:41.974Z,46.99
2022-08-20T15:30:12.996Z,49.70
2022-08-20T15:32:41.316Z,52.46
2022-08-20T15:35:09.923Z,55.45
2022-08-20T15:37:38.741Z,57.65
2022-08-20T15:40:08.978Z,59.58
2022-08-20T15:42:36.004Z,62.54
2022-08-20T15:45:02.409Z,66.80
2022-08-20T15:47:30.788Z,73.25
2022-08-20T15:50:02.466Z,77.50
2022-08-20T15:52:31.717Z,83.02
2022-08-20T15:54:58.473Z,85.26
2022-08-20T15:57:24.964Z,85.28
2022-08-20T16:00:09.692Z,90.18
2022-08-20T16:02:45.073Z,91.79
2022-08-20T16:05:17.855Z,94.20
2022-08-20T16:08:03.284Z,96.89
2022-08-20T16:10:48.360Z,97.74
2022-08-20T16:13:29.969Z,98.57
2022-08-20T16:15:59.427Z,100.00
2022-08-20T16:18:27.634Z,100.00
2022-08-20T16:20:54.866Z,100.00
2022-08-20T16:23:28.967Z,100.00
2022-08-20T16:25:58.298Z,100.00
2022-08-20T16:28:32.621Z,100.00
2022-08-20T16:31:02.474Z,100.00
2022-08-20T16:33:42.518Z,100.00
2022-08-20T16:36:10.812Z,100.00
2022-08-20T16:38:37.113Z,100.00
2022-08-20T16:41:10.603Z,100.00
2022-08-20T16:43:39.880Z,100.00
2022-08-20T16:46:14.973Z,100.00
2022-08-20T16:48:45.106Z,100.00
2022-08-20T16:51:20.628Z,100.00
2022-08-20T16:53:46.943Z,100.00
2022-08-20T16:56:13.388Z,100.00
2022-08-20T16:58:39.755Z,100.00
2022-08-20T17:01:08.251Z,100.00
2022-08-20T17:03:40.289Z,100.00
2022-08-20T17:06:39.254Z,100.00
2022-08-20T17:09:10.868Z,100.00
2022-08-20T17:11:37.387Z,100.00
2022-08-20T17:14:06.649Z,100.00
2022-08-20T17:16:36.161Z,100.00
2022-08-20T17:19:11.117Z,100.00
2022-08-20T17:21:38.766Z,100.00
2022-08-20T17:24:09.382Z,100.00
2022-08-20T17:26:45.218Z,100.00
2022-08-20T17:29:21.166Z,100.00
2022-08-20T17:31:52.708Z,100.00
2022-08-20T17:34:22.160Z,100.00
2022-08-20T17:36:51.521Z,100.00
2022-08-20T17:39:19.301Z,100.00
2022-08-20T17:41:52.733Z,100.00
2022-08-20T17:44:24.899Z,100.00
2022-08-20T17:46:53.604Z,100.00
2022-08-20T17:49:33.445Z,100.00
2022-08-20T17:52:02.656Z,100.00
2022-08-20T17:54:37.087Z,100.00
2022-08-20T17:57:05.466Z,100.00
2022-08-20T17:59:59.883Z,100.00
2022-08-20T18:02:27.338Z,100.00
2022-08-20T18:04:55.322Z,100.00
2022-08-20T18:07:24.594Z,100.00
2022-08-20T18:09:57.533Z,100.00
2022-08-20T18:12:32.750Z,100.00
2022-08-20T18:15:15.267Z,100.00
2022-08-20T18:17:47.336Z,100.00
2022-08-20T18:20:28.954Z,100.00
2022-08-20T18:22:58.471Z,100.00
2022-08-20T18:25:24.929Z,100.00
2022-08-20T18:27:52.585Z,100.00
2022-08-20T18:30:21.198Z,100.00
2022-08-20T18:32:49.185Z,100.00
2022-08-20T18:35:24.431Z,100.00
2022-08-20T18:37:50.867Z,100.00
2022-08-20T18:40:17.192Z,100.00
2022-08-20T18:42:43.801Z,100.00
2022-08-20T18:45:10.209Z,100.00
2022-08-20T18:47:36.507Z,100.00
2022-08-20T18:50:16.066Z,100.00
2022-08-20T18:52:45.079Z,100.00
2022-08-20T18:55:31.603Z,100.00
2022-08-20T18:58:02.844Z,100.00
2022-08-20T19:00:43.705Z,100.00
2022-08-20T19:03:10.001Z,100.00
2022-08-20T19:05:42.777Z,100.00
2022-08-20T19:08:09.420Z,100.00
2022-08-20T19:10:51.095Z,100.00
2022-08-20T19:13:36.213Z,100.00
2022-08-20T19:16:05.840Z,100.00
2022-08-20T19:18:37.444Z,100.00
2022-08-20T19:21:04.412Z,100.00
2022-08-20T19:23:33.209Z,100.00
2022-08-20T19:26:04.575Z,100.00
2022-08-20T19:28:49.754Z,100.00
2022-08-20T19:31:18.302Z,100.00
2022-08-20T19:33:46.808Z,100.00
2022-08-20T19:36:17.397Z,100.00
2022-08-20T19:38:50.388Z,100.00
2022-08-20T19:41:21.471Z,100.00
2022-08-20T19:43:58.294Z,100.00
2022-08-20T19:46:36.400Z,100.00
2022-08-20T19:49:12.255Z,100.00
2022-08-20T19:51:54.599Z,100.00
2022-08-20T19:54:21.880Z,100.00
2022-08-20T19:56:48.525Z,100.00
2022-08-20T19:59:23.460Z,100.00
2022-08-20T20:02:00.074Z,100.00
2022-08-20T20:04:29.755Z,100.00
2022-08-20T20:06:58.275Z,100.00
2022-08-20T20:09:26.379Z,100.00
2022-08-20T20:11:57.202Z,100.00
2022-08-20T20:14:31.188Z,100.00
2022-08-20T20:16:57.871Z,100.00
2022-08-20T20:19:27.137Z,100.00
2022-08-20T20:22:18.989Z,100.00
2022-08-20T20:24:47.966Z,100.00
2022-08-20T20:27:22.137Z,100.00
2022-08-20T20:29:48.653Z,100.00
2022-08-20T20:32:19.341Z,100.00
2022-08-20T20:34:55.287Z,100.00
2022-08-20T20:37:48.891Z,100.00
2022-08-20T20:40:22.722Z,100.00
2022-08-20T20:43:03.858Z,100.00
2022-08-20T20:45:35.450Z,100.00
2022-08-20T20:48:10.515Z,100.00
2022-08-20T20:50:40.304Z,100.00
2022-08-20T20:53:06.865Z,100.00
2022-08-20T20:55:35.246Z,100.00
2022-08-20T20:58:02.551Z,100.00
2022-08-20T21:00:32.504Z,100.00
2022-08-20T21:03:00.303Z,100.00
2022-08-20T21:05:30.314Z,100.00
2022-08-20T21:07:58.631Z,100.00
2022-08-20T21:10:27.146Z,100.00
2022-08-20T21:12:53.669Z,100.00
2022-08-20T21:15:21.132Z,100.00
2022-08-20T21:17:47.993Z,100.00
2022-08-20T21:20:17.693Z,100.00
2022-08-20T21:22:44.046Z,100.00
2022-08-20T21:25:10.411Z,100.00
2022-08-20T21:27:36.769Z,100.00
2022-08-20T21:30:04.272Z,100.00
2022-08-20T21:32:30.601Z,100.00
2022-08-20T21:34:56.974Z,100.00
2022-08-20T21:37:23.438Z,100.00
2022-08-20T21:39:49.876Z,100.00
2022-08-20T21:42:28.455Z,100.00
2022-08-20T21:44:56.352Z,100.00
2022-08-20T21:47:22.821Z,100.00
2022-08-20T21:49:49.126Z,100.00
2022-08-20T21:52:15.465Z,100.00
2022-08-20T21:54:41.812Z,100.00
2022-08-20T21:57:12.889Z,100.00
2022-08-20T21:59:39.222Z,100.00
2022-08-20T22:02:05.608Z,100.00
2022-08-20T22:04:35.375Z,100.00
2022-08-20T22:07:02.081Z,100.00
2022-08-20T22:09:28.455Z,100.00
2022-08-20T22:11:57.357Z,100.00
2022-08-20T22:14:27.506Z,100.00
2022-08-20T22:16:53.831Z,100.00
2022-08-20T22:19:20.296Z,100.00
2022-08-20T22:21:46.779Z,100.00
2022-08-20T22:24:13.455Z,100.00
2022-08-20T22:26:40.440Z,100.00
2022-08-20T22:29:08.216Z,100.00
2022-08-20T22:31:36.878Z,100.00
2022-08-20T22:34:03.407Z,100.00
2022-08-20T22:36:29.816Z,100.00
2022-08-20T22:38:56.188Z,100.00
2022-08-20T22:41:23.156Z,100.00
2022-08-20T22:43:55.704Z,100.00
2022-08-20T22:46:24.017Z,100.00
2022-08-20T22:48:52.832Z,100.00
2022-08-20T22:51:26.694Z,100.00
2022-08-20T22:53:53.148Z,100.00
2022-08-20T22:56:19.857Z,100.00
2022-08-20T22:58:48.372Z,100.00
2022-08-20T23:01:16.855Z,100.00
2022-08-20T23:03:43.387Z,100.00
2022-08-20T23:06:10.485Z,100.00
2022-08-20T23:08:37.988Z,100.00
2022-08-20T23:11:04.387Z,100.00
2022-08-20T23:13:30.691Z,100.00
2022-08-20T23:15:57.276Z,100.00
2022-08-20T23:18:23.787Z,100.00
2022-08-20T23:20:52.663Z,100.00
2022-08-20T23:23:19.250Z,100.00
2022-08-20T23:25:45.770Z,100.00
2022-08-20T23:28:17.893Z,100.00
2022-08-20T23:30:44.647Z,100.00
2022-08-20T23:33:11.100Z,100.00
2022-08-20T23:35:37.828Z,100.00
2022-08-20T23:38:04.164Z,100.00
2022-08-20T23:40:31.122Z,100.00
2022-08-20T23:42:57.705Z,100.00
2022-08-20T23:45:26.443Z,100.00
2022-08-20T23:47:52.891Z,100.00
2022-08-20T23:50:21.363Z,100.00
2022-08-20T23:52:50.674Z,100.00
2022-08-20T23:55:18.107Z,100.00
2022-08-20T23:57:44.587Z,100.00
